createdAt,value
2023-12-11T00:00:06.195Z,9.87
2023-12-11T00:04:07.607Z,6.30
2023-12-11T00:08:09.075Z,4.63
2023-12-11T00:12:10.887Z,6.63
2023-12-11T00:16:12.268Z,5.67
2023-12-11T00:20:13.606Z,3.40
2023-12-11T00:24:15.153Z,3.40
2023-12-11T00:28:17.702Z,4.53
2023-12-11T00:32:19.014Z,4.33
2023-12-11T00:36:20.358Z,4.70
2023-12-11T00:40:21.664Z,5.20
2023-12-11T00:44:23.024Z,3.63
2023-12-11T00:48:24.417Z,5.07
2023-12-11T00:52:25.891Z,5.60
2023-12-11T00:56:27.225Z,4.00
2023-12-11T01:00:28.569Z,4.43
2023-12-11T01:04:30.024Z,5.47
2023-12-11T01:08:33.270Z,4.00
2023-12-11T01:12:36.122Z,3.70
2023-12-11T01:16:37.424Z,4.10
2023-12-11T01:20:39.970Z,6.03
2023-12-11T01:24:41.450Z,4.30
2023-12-11T01:28:43.602Z,4.17
2023-12-11T01:32:44.963Z,5.00
2023-12-11T01:36:46.317Z,5.03
2023-12-11T01:40:48.336Z,5.40
2023-12-11T01:44:49.672Z,3.93
2023-12-11T01:48:53.520Z,6.03
2023-12-11T01:52:54.923Z,4.00
2023-12-11T01:56:56.271Z,6.17
2023-12-11T02:00:58.618Z,4.50
2023-12-11T02:05:01.082Z,5.00
2023-12-11T02:09:02.824Z,5.57
2023-12-11T02:13:04.733Z,4.40
2023-12-11T02:17:10.947Z,4.30
2023-12-11T02:21:12.397Z,3.40
2023-12-11T02:25:13.908Z,6.60
2023-12-11T02:29:15.600Z,3.83
2023-12-11T02:33:17.486Z,3.40
2023-12-11T02:37:18.856Z,4.50
2023-12-11T02:41:20.205Z,5.97
2023-12-11T02:45:21.556Z,3.57
2023-12-11T02:49:22.936Z,4.80
2023-12-11T02:53:24.310Z,4.07
2023-12-11T02:57:25.669Z,3.67
2023-12-11T03:01:27.174Z,4.70
2023-12-11T03:05:28.669Z,5.97
2023-12-11T03:09:29.995Z,4.50
2023-12-11T03:13:31.342Z,4.60
2023-12-11T03:17:32.943Z,4.60
2023-12-11T03:21:34.434Z,5.20
2023-12-11T03:25:35.847Z,4.30
2023-12-11T03:29:37.169Z,4.43
2023-12-11T03:33:38.580Z,4.63
2023-12-11T03:37:40.119Z,6.37
2023-12-11T03:41:41.638Z,4.40
2023-12-11T03:45:42.987Z,4.87
2023-12-11T03:54:17.783Z,4.50
2023-12-11T03:58:19.959Z,5.87
2023-12-11T04:02:21.395Z,4.90
2023-12-11T04:06:23.081Z,5.63
2023-12-11T04:10:24.857Z,4.60
2023-12-11T04:14:26.184Z,8.20
2023-12-11T04:18:27.521Z,5.47
2023-12-11T04:22:28.788Z,5.10
2023-12-11T04:26:30.136Z,8.43
2023-12-11T04:30:31.515Z,7.10
2023-12-11T04:34:32.903Z,9.70
2023-12-11T04:38:34.193Z,6.20
2023-12-11T04:42:35.719Z,8.43
2023-12-11T04:46:37.045Z,4.63
2023-12-11T04:50:38.335Z,6.37
2023-12-11T04:54:41.612Z,11.50
2023-12-11T04:58:42.980Z,6.77
2023-12-11T05:02:44.316Z,7.63
2023-12-11T05:06:45.717Z,6.13
2023-12-11T05:10:47.272Z,6.33
2023-12-11T05:14:48.588Z,5.73
2023-12-11T05:18:49.961Z,5.70
2023-12-11T05:22:51.308Z,9.23
2023-12-11T05:26:54.724Z,5.70
2023-12-11T05:30:56.058Z,8.70
2023-12-11T05:34:57.385Z,5.97
2023-12-11T05:38:58.728Z,7.37
2023-12-11T05:43:00.120Z,11.17
2023-12-11T05:47:01.412Z,7.23
2023-12-11T05:51:03.104Z,7.23
2023-12-11T05:55:06.283Z,8.53
2023-12-11T05:59:07.761Z,6.83
2023-12-11T06:03:10.787Z,6.13
2023-12-11T06:07:12.515Z,6.87
2023-12-11T06:11:13.993Z,5.10
2023-12-11T06:15:15.421Z,7.03
2023-12-11T06:19:17.777Z,6.50
2023-12-11T06:23:22.057Z,8.73
2023-12-11T06:27:25.267Z,7.27
2023-12-11T06:31:30.862Z,6.13
2023-12-11T06:35:32.232Z,7.93
2023-12-11T06:39:33.537Z,6.53
2023-12-11T06:43:36.392Z,4.87
2023-12-11T06:47:37.714Z,4.93
2023-12-11T06:51:39.272Z,5.10
2023-12-11T06:55:40.547Z,11.03
2023-12-11T06:59:42.042Z,6.97
2023-12-11T07:03:45.727Z,4.90
2023-12-11T07:07:47.038Z,6.90
2023-12-11T07:11:48.880Z,5.93
2023-12-11T07:15:50.263Z,4.40
2023-12-11T07:19:51.600Z,6.00
2023-12-11T07:23:52.847Z,8.20
2023-12-11T07:27:54.223Z,5.03
2023-12-11T07:31:55.519Z,6.80
2023-12-11T07:35:56.828Z,3.90
2023-12-11T07:39:58.231Z,5.60
2023-12-11T07:44:00.109Z,6.13
2023-12-11T07:48:01.550Z,7.83
2023-12-11T07:52:03.987Z,6.30
2023-12-11T07:56:05.911Z,8.07
2023-12-11T08:00:08.854Z,4.87
2023-12-11T08:04:10.574Z,6.90
2023-12-11T08:08:13.562Z,6.03
2023-12-11T08:12:14.939Z,6.43
2023-12-11T08:16:17.034Z,6.20
2023-12-11T08:20:20.094Z,5.60
2023-12-11T08:24:21.548Z,9.70
2023-12-11T08:28:22.908Z,5.60
2023-12-11T08:32:24.635Z,6.90
2023-12-11T08:36:25.933Z,6.80
2023-12-11T08:40:28.101Z,7.03
2023-12-11T08:44:29.464Z,7.17
2023-12-11T08:48:30.894Z,6.53
2023-12-11T08:52:32.340Z,5.87
2023-12-11T08:56:33.751Z,6.97
2023-12-11T09:00:36.129Z,7.00
2023-12-11T09:04:38.572Z,8.97
2023-12-11T09:08:41.432Z,8.13
2023-12-11T09:12:43.401Z,9.80
2023-12-11T09:16:45.672Z,6.37
2023-12-11T09:20:47.071Z,9.37
2023-12-11T09:24:48.438Z,11.03
2023-12-11T09:28:52.177Z,7.63
2023-12-11T09:32:53.225Z,11.73
2023-12-11T09:36:55.233Z,7.70
2023-12-11T09:40:58.270Z,7.67
2023-12-11T09:45:00.797Z,7.10
2023-12-11T09:49:04.126Z,9.87
2023-12-11T09:53:05.794Z,9.80
2023-12-11T09:57:11.260Z,7.50
2023-12-11T10:01:13.909Z,8.17
2023-12-11T10:05:19.244Z,10.20
2023-12-11T10:09:28.302Z,13.23
2023-12-11T10:13:29.807Z,10.60
2023-12-11T10:17:31.859Z,7.40
2023-12-11T10:21:39.105Z,7.80
2023-12-11T10:25:43.458Z,12.93
2023-12-11T10:29:44.779Z,9.40
2023-12-11T10:33:50.964Z,9.77
2023-12-11T10:38:00.775Z,8.40
2023-12-11T10:42:17.728Z,6.83
2023-12-11T10:46:19.224Z,10.50
2023-12-11T10:50:20.732Z,10.67
2023-12-11T10:54:22.114Z,11.43
2023-12-11T10:58:25.737Z,12.07
2023-12-11T11:02:27.787Z,10.73
2023-12-11T11:06:29.821Z,12.33
2023-12-11T11:10:34.949Z,7.03
2023-12-11T11:14:46.509Z,8.60
2023-12-11T11:19:05.162Z,9.37
2023-12-11T11:23:19.544Z,9.90
2023-12-11T11:27:39.381Z,7.47
2023-12-11T11:31:50.081Z,13.67
2023-12-11T11:35:52.994Z,9.03
2023-12-11T11:40:05.567Z,8.47
2023-12-11T11:44:09.679Z,9.80
2023-12-11T11:48:11.342Z,10.00
2023-12-11T11:52:14.806Z,6.60
2023-12-11T11:56:16.251Z,10.43
2023-12-11T12:00:28.697Z,8.33
2023-12-11T12:04:33.343Z,7.97
2023-12-11T12:08:37.248Z,11.20
2023-12-11T12:12:38.938Z,11.30
2023-12-11T12:16:40.604Z,10.47
2023-12-11T12:20:42.120Z,7.67
2023-12-11T12:24:45.770Z,8.67
2023-12-11T12:28:47.082Z,8.90
2023-12-11T12:32:50.991Z,7.93
2023-12-11T12:36:55.470Z,6.90
2023-12-11T12:40:56.782Z,7.07
2023-12-11T12:44:58.955Z,8.50
2023-12-11T12:49:11.752Z,5.33
2023-12-11T12:53:14.494Z,9.90
2023-12-11T12:57:17.255Z,6.73
2023-12-11T13:01:18.768Z,9.20
2023-12-11T13:05:20.234Z,13.87
2023-12-11T13:09:32.405Z,12.20
2023-12-11T13:13:33.801Z,8.73
2023-12-11T13:17:35.872Z,10.43
2023-12-11T13:21:37.791Z,7.43
2023-12-11T13:25:39.099Z,6.70
2023-12-11T13:29:40.465Z,10.80
2023-12-11T13:33:41.873Z,8.57
2023-12-11T13:37:43.434Z,9.07
2023-12-11T13:41:44.827Z,9.23
2023-12-11T13:45:46.883Z,6.50
2023-12-11T13:49:48.306Z,6.60
2023-12-11T13:53:51.319Z,9.03
2023-12-11T13:57:52.657Z,8.23
2023-12-11T14:01:56.017Z,9.00
2023-12-11T14:05:57.565Z,9.37
2023-12-11T14:09:58.945Z,6.73
2023-12-11T14:14:00.221Z,9.67
2023-12-11T14:18:03.826Z,10.77
2023-12-11T14:22:05.267Z,9.97
2023-12-11T14:26:06.648Z,11.20
2023-12-11T14:30:10.459Z,6.87
2023-12-11T14:34:11.834Z,9.50
2023-12-11T14:38:13.214Z,10.63
2023-12-11T14:42:14.546Z,7.60
2023-12-11T14:46:16.189Z,8.03
2023-12-11T14:50:17.955Z,7.77
2023-12-11T14:54:20.517Z,7.53
2023-12-11T14:58:21.903Z,7.27
2023-12-11T15:02:23.319Z,11.50
2023-12-11T15:06:25.463Z,7.00
2023-12-11T15:10:29.011Z,9.00
2023-12-11T15:14:31.859Z,6.87
2023-12-11T15:18:34.068Z,7.57
2023-12-11T15:22:35.363Z,7.97
2023-12-11T15:26:36.696Z,7.03
2023-12-11T15:30:38.109Z,7.30
2023-12-11T15:34:41.396Z,7.43
2023-12-11T15:38:43.129Z,7.73
2023-12-11T15:42:44.667Z,7.77
2023-12-11T15:46:46.133Z,6.90
2023-12-11T15:50:47.559Z,4.93
2023-12-11T15:54:49.198Z,12.60
2023-12-11T15:58:50.490Z,7.07
2023-12-11T16:02:53.049Z,7.73
2023-12-11T16:06:54.485Z,9.23
2023-12-11T16:10:56.436Z,8.90
2023-12-11T16:14:57.878Z,8.80
2023-12-11T16:19:00.201Z,8.30
2023-12-11T16:23:02.507Z,8.07
2023-12-11T16:27:04.088Z,8.10
2023-12-11T16:31:05.506Z,7.63
2023-12-11T16:35:07.183Z,6.87
2023-12-11T16:39:08.608Z,9.60
2023-12-11T16:43:10.161Z,10.40
2023-12-11T16:47:11.551Z,9.67
2023-12-11T16:51:13.170Z,6.13
2023-12-11T16:55:15.285Z,10.93
2023-12-11T16:59:16.973Z,10.63
2023-12-11T17:03:18.312Z,8.33
2023-12-11T17:07:19.675Z,8.83
2023-12-11T17:11:22.156Z,7.97
2023-12-11T17:15:23.511Z,9.57
2023-12-11T17:19:25.839Z,6.10
2023-12-11T17:23:27.388Z,6.57
2023-12-11T17:27:28.892Z,13.20
2023-12-11T17:31:30.457Z,10.00
2023-12-11T17:35:32.016Z,6.20
2023-12-11T17:39:33.290Z,9.90
2023-12-11T17:43:35.115Z,10.53
2023-12-11T17:47:36.465Z,14.20
2023-12-11T17:51:37.771Z,13.10
2023-12-11T17:55:39.071Z,20.33
2023-12-11T17:59:42.345Z,10.20
2023-12-11T18:03:43.878Z,13.97
2023-12-11T18:07:46.063Z,12.17
2023-12-11T18:11:47.364Z,8.70
2023-12-11T18:15:49.770Z,13.90
2023-12-11T18:19:51.205Z,13.67
2023-12-11T18:23:52.666Z,11.03
2023-12-11T18:27:54.092Z,12.40
2023-12-11T18:31:56.273Z,12.70
2023-12-11T18:35:58.484Z,9.47
2023-12-11T18:40:00.109Z,12.47
2023-12-11T18:44:01.597Z,16.50
2023-12-11T18:48:03.820Z,7.63
2023-12-11T18:52:05.741Z,12.00
2023-12-11T18:56:07.868Z,11.20
2023-12-11T19:00:10.355Z,14.20
2023-12-11T19:04:11.958Z,7.60
2023-12-11T19:08:13.351Z,10.83
2023-12-11T19:12:15.626Z,10.90
2023-12-11T19:16:16.957Z,12.43
2023-12-11T19:20:21.340Z,10.20
2023-12-11T19:24:22.654Z,11.50
2023-12-11T19:28:24.110Z,12.77
2023-12-11T19:32:26.604Z,15.53
2023-12-11T19:36:27.974Z,10.77
2023-12-11T19:40:29.354Z,12.37
2023-12-11T19:44:30.784Z,17.03
2023-12-11T19:48:32.375Z,14.33
2023-12-11T19:52:34.077Z,15.37
2023-12-11T19:56:35.383Z,10.90
2023-12-11T20:00:37.453Z,13.37
2023-12-11T20:04:42.685Z,12.70
2023-12-11T20:08:43.980Z,14.50
2023-12-11T20:12:45.843Z,14.93
2023-12-11T20:16:48.360Z,18.00
2023-12-11T20:20:50.817Z,14.10
2023-12-11T20:24:53.206Z,11.23
2023-12-11T20:28:58.199Z,14.67
2023-12-11T20:33:02.911Z,13.77
2023-12-11T20:37:04.529Z,12.07
2023-12-11T20:41:06.286Z,10.10
2023-12-11T20:45:07.935Z,16.47
2023-12-11T20:49:09.311Z,14.20
2023-12-11T20:53:10.599Z,14.03
2023-12-11T20:57:11.984Z,16.80
2023-12-11T21:01:29.502Z,16.23
2023-12-11T21:05:31.929Z,19.80
2023-12-11T21:09:33.277Z,13.43
2023-12-11T21:13:35.022Z,18.33
2023-12-11T21:17:38.395Z,17.03
2023-12-11T21:21:44.451Z,9.60
2023-12-11T21:25:45.939Z,14.47
2023-12-11T21:29:47.552Z,12.00
2023-12-11T21:33:53.390Z,12.50
2023-12-11T21:37:56.143Z,14.13
2023-12-11T21:41:57.547Z,13.87
2023-12-11T21:45:59.200Z,15.13
2023-12-11T21:50:01.022Z,16.00
2023-12-11T21:54:04.317Z,19.53
2023-12-11T21:58:06.056Z,11.73
2023-12-11T22:02:07.581Z,17.30
2023-12-11T22:06:10.884Z,17.60
2023-12-11T22:10:12.251Z,14.80
2023-12-11T22:14:13.687Z,12.63
2023-12-11T22:18:15.195Z,18.07
2023-12-11T22:22:16.960Z,15.87
2023-12-11T22:26:19.727Z,16.67
2023-12-11T22:30:21.209Z,20.80
2023-12-11T22:34:22.781Z,17.63
2023-12-11T22:38:24.383Z,15.50
2023-12-11T22:42:25.889Z,15.30
2023-12-11T22:46:27.926Z,17.03
2023-12-11T22:50:31.637Z,15.63
2023-12-11T22:54:32.505Z,16.83
2023-12-11T22:58:34.643Z,16.10
2023-12-11T23:02:36.123Z,17.73
2023-12-11T23:06:37.510Z,13.23
2023-12-11T23:10:38.878Z,20.60
2023-12-11T23:14:40.336Z,13.70
2023-12-11T23:18:41.868Z,20.20
2023-12-11T23:22:43.936Z,20.60
2023-12-11T23:26:45.248Z,19.93
2023-12-11T23:30:46.605Z,18.20
2023-12-11T23:34:48.625Z,15.23
2023-12-11T23:38:50.105Z,14.70
2023-12-11T23:42:52.397Z,16.97
2023-12-11T23:46:53.879Z,15.13
2023-12-11T23:50:55.240Z,21.23
2023-12-11T23:54:56.746Z,14.40
2023-12-11T23:58:58.142Z,16.67
